Terminal Aerodrome Forecast
Issued by NWS El Paso, TX

Home | Current Version | Previous Version | Text Only | Print | Product List | Glossary On
Versions: 1 2 3 4 5 6 7 8 9 10 11 12 13 14 15
000
FTUS44 KEPZ 301120
TAFELP
TAF
KELP 301120Z 3012/0112 17005KT P6SM FEW180
     FM301400 29010KT P6SM SKC
     FM302000 28015G25KT P6SM SKC
     FM010200 26006KT P6SM SKC=

USA.gov is the U.S. government's official web portal to all federal, state and local government web resources and services.